Time;durP1;ratioP1;P1;durP2;ratioP2;P2;SDS_P1;SDS_P2;PMS_P1;PMS_P2;Temp;Humidity;BMP_temperature;BMP_pressure;BME280_temperature;BME280_humidity;BME280_pressure;Samples;Min_cycle;Max_cycle;Signal;HPM_P1;HPM_P2
2022/07/16 00:03:17;;;;;;;8.05;3.63;;;;;;;17.56;57.67;102028.94;5039013;28;20060;-72
2022/07/16 00:05:43;;;;;;;8.35;3.65;;;;;;;17.64;57.55;102028.91;5038852;28;20025;-72
2022/07/16 00:08:08;;;;;;;6.93;3.92;;;;;;;17.71;57.61;102030.72;5038203;28;20061;-72
2022/07/16 00:10:34;;;;;;;8.07;3.75;;;;;;;17.65;57.62;102025.38;5037179;28;20033;-73
2022/07/16 00:12:59;;;;;;;8.15;3.95;;;;;;;17.72;57.34;102029.81;5037015;28;20030;-73
2022/07/16 00:15:24;;;;;;;7.47;4.10;;;;;;;17.68;57.58;102028.03;5036473;28;20025;-73
2022/07/16 00:19:15;;;;;;;7.75;3.70;;;;;;;17.73;58.00;102027.16;5035045;28;20026;-72
2022/07/16 00:20:35;;;;;;;6.28;3.60;;;;;;;17.71;58.33;102031.59;5037006;28;20042;-72
2022/07/16 00:23:01;;;;;;;8.55;3.83;;;;;;;17.63;58.86;102035.16;5038183;28;20033;-72
2022/07/16 00:25:26;;;;;;;8.15;3.60;;;;;;;17.52;59.67;102032.50;5037886;28;20048;-72
2022/07/16 00:27:51;;;;;;;6.72;3.65;;;;;;;17.47;59.42;102037.84;5037892;28;20101;-72
2022/07/16 00:30:17;;;;;;;13.10;3.90;;;;;;;17.34;59.62;102036.00;5036728;28;20537;-72
2022/07/16 00:32:42;;;;;;;10.15;3.67;;;;;;;17.24;59.55;102036.88;5034678;28;20025;-73
2022/07/16 00:35:08;;;;;;;10.65;3.75;;;;;;;17.24;59.86;102037.78;5051485;28;20072;-73
2022/07/16 00:37:33;;;;;;;6.15;3.70;;;;;;;17.18;59.94;102036.88;5035896;28;20416;-72
2022/07/16 00:39:59;;;;;;;10.02;3.90;;;;;;;17.22;59.65;102038.69;5036207;28;20471;-72
2022/07/16 00:42:24;;;;;;;8.77;3.72;;;;;;;17.17;59.86;102038.66;5035663;28;20029;-73
2022/07/16 00:44:49;;;;;;;7.38;3.92;;;;;;;17.20;60.26;102032.41;5034516;28;20112;-73
2022/07/16 00:47:15;;;;;;;10.05;4.25;;;;;;;17.20;59.94;102035.97;5034454;28;20030;-72
2022/07/16 00:49:40;;;;;;;11.02;4.05;;;;;;;17.19;60.26;102033.31;5035611;28;20101;-73
2022/07/16 00:52:06;;;;;;;9.25;4.10;;;;;;;17.21;59.91;102039.53;5051306;28;20099;-73
2022/07/16 00:54:31;;;;;;;9.30;4.25;;;;;;;17.19;59.93;102023.53;5035775;28;20072;-73
2022/07/16 00:56:57;;;;;;;13.60;4.20;;;;;;;17.28;59.65;102031.56;5051300;28;20056;-73
2022/07/16 00:59:22;;;;;;;12.77;4.20;;;;;;;17.39;58.96;102025.34;5050421;28;20102;-73
2022/07/16 01:01:47;;;;;;;8.38;4.03;;;;;;;17.36;59.25;102026.22;5035507;28;20018;-73
2022/07/16 01:04:16;;;;;;;11.07;4.38;;;;;;;17.46;59.07;102032.47;5035529;28;20391;-72
2022/07/16 01:06:41;;;;;;;8.35;4.38;;;;;;;17.46;58.79;102029.78;5034104;28;20501;-72
2022/07/16 01:09:08;;;;;;;7.85;4.10;;;;;;;17.37;59.33;102027.13;5035386;28;20029;-72
2022/07/16 01:11:34;;;;;;;10.55;4.00;;;;;;;17.34;59.58;102029.78;5050762;28;20033;-73
2022/07/16 01:14:00;;;;;;;9.52;4.57;;;;;;;17.28;59.85;102026.22;5035399;28;20029;-73
2022/07/16 01:16:25;;;;;;;10.02;4.10;;;;;;;17.25;60.12;102020.84;5035169;28;20048;-73
2022/07/16 01:18:51;;;;;;;8.48;4.20;;;;;;;17.28;60.26;102020.88;5033958;28;20390;-72
2022/07/16 01:21:16;;;;;;;9.57;3.90;;;;;;;17.27;59.66;102023.53;5034888;28;20057;-72
2022/07/16 01:23:45;;;;;;;9.23;4.00;;;;;;;17.28;59.86;102015.53;5035094;28;20029;-72
2022/07/16 01:26:11;;;;;;;9.35;4.05;;;;;;;17.31;59.50;102019.09;5033875;28;20391;-72
2022/07/16 01:28:36;;;;;;;12.45;4.00;;;;;;;17.27;59.61;102010.19;5050379;28;20021;-72
2022/07/16 01:31:02;;;;;;;6.15;3.95;;;;;;;17.26;59.72;102011.97;5035034;28;20040;-72
2022/07/16 01:33:32;;;;;;;7.32;3.65;;;;;;;17.28;59.24;102022.66;5033527;28;20026;-72
2022/07/16 01:36:03;;;;;;;8.40;3.70;;;;;;;17.40;58.75;102011.97;5034890;28;20025;-72
2022/07/16 01:38:29;;;;;;;10.38;3.58;;;;;;;17.39;58.59;102012.88;5034689;28;20036;-72
2022/07/16 01:40:56;;;;;;;8.80;3.45;;;;;;;17.53;58.10;102021.78;5034866;28;20026;-73
2022/07/16 01:43:24;;;;;;;9.63;3.80;;;;;;;17.62;57.92;102028.03;5034696;28;20395;-73
2022/07/16 01:45:50;;;;;;;8.13;3.70;;;;;;;17.64;57.83;102031.59;5033350;28;20451;-72
2022/07/16 01:48:16;;;;;;;6.45;3.63;;;;;;;17.66;58.05;102028.03;5034593;28;20415;-73
2022/07/16 01:50:43;;;;;;;8.13;3.85;;;;;;;17.65;57.81;102028.94;5034628;28;20036;-72
2022/07/16 01:53:10;;;;;;;5.32;3.60;;;;;;;17.65;58.25;102023.59;5034902;28;20030;-72
2022/07/16 01:55:36;;;;;;;6.85;3.40;;;;;;;17.70;57.69;102031.59;5033204;28;20017;-72
2022/07/16 01:58:04;;;;;;;6.53;3.47;;;;;;;17.63;58.13;102022.69;5034660;28;20025;-72
2022/07/16 02:00:30;;;;;;;9.88;4.00;;;;;;;17.51;58.55;102017.31;5033155;28;20021;-72
2022/07/16 02:02:56;;;;;;;6.50;3.75;;;;;;;17.58;58.07;102028.94;5034088;28;20017;-73
2022/07/16 02:05:22;;;;;;;9.57;4.00;;;;;;;17.63;57.89;102022.69;5034250;28;20048;-73
2022/07/16 02:07:47;;;;;;;6.20;3.97;;;;;;;17.60;58.07;102021.78;5034548;28;20017;-72
2022/07/16 02:10:13;;;;;;;9.02;3.97;;;;;;;17.55;58.24;102018.22;5032952;28;20021;-73
2022/07/16 02:12:39;;;;;;;9.20;3.60;;;;;;;17.58;58.04;102021.78;5033532;28;20369;-73
2022/07/16 02:15:06;;;;;;;6.88;4.07;;;;;;;17.52;57.98;102017.34;5049853;28;20029;-73
2022/07/16 02:17:31;;;;;;;6.85;3.97;;;;;;;17.55;58.22;102010.19;5034230;28;20060;-73
2022/07/16 02:19:57;;;;;;;7.93;4.00;;;;;;;17.53;58.22;102011.09;5033708;28;20131;-73
2022/07/16 02:22:22;;;;;;;7.90;3.83;;;;;;;17.59;57.84;102010.19;5033858;28;20376;-73
2022/07/16 02:24:48;;;;;;;8.88;3.75;;;;;;;17.67;57.75;102013.78;5033997;28;20037;-73
2022/07/16 02:27:13;;;;;;;7.65;4.57;;;;;;;17.64;57.78;102012.88;5033874;28;20025;-73
2022/07/16 02:29:38;;;;;;;9.82;4.20;;;;;;;17.67;57.67;102004.88;5032673;28;20103;-72
2022/07/16 02:32:04;;;;;;;9.15;3.90;;;;;;;17.64;57.84;102004.84;5033714;28;20029;-73
2022/07/16 02:34:29;;;;;;;7.57;4.03;;;;;;;17.70;57.64;102008.44;5033762;28;20446;-73
2022/07/16 02:36:55;;;;;;;7.28;3.80;;;;;;;17.76;57.69;102003.09;5033734;28;20037;-72
2022/07/16 02:39:21;;;;;;;7.07;4.22;;;;;;;17.72;57.39;102011.97;5048999;28;20112;-73
2022/07/16 02:41:46;;;;;;;6.13;4.15;;;;;;;17.65;57.19;102009.34;5033705;28;20113;-73
2022/07/16 02:44:11;;;;;;;12.30;4.20;;;;;;;17.59;57.50;102004.84;5033614;28;20029;-73
2022/07/16 02:46:37;;;;;;;8.07;4.30;;;;;;;17.60;57.18;102009.34;5032169;28;20461;-73
2022/07/16 02:49:02;;;;;;;12.10;4.45;;;;;;;17.64;57.42;102008.41;5033408;28;20071;-73
2022/07/16 02:51:28;;;;;;;7.80;4.50;;;;;;;17.68;56.91;102001.28;5032066;28;20032;-73
2022/07/16 02:53:53;;;;;;;7.13;4.50;;;;;;;17.69;57.03;102006.66;5048766;28;20022;-72
2022/07/16 02:56:18;;;;;;;6.38;4.45;;;;;;;17.72;57.03;102008.41;5033585;28;20057;-73
2022/07/16 02:58:44;;;;;;;6.80;4.30;;;;;;;17.74;57.10;102010.25;5033413;28;20471;-73
2022/07/16 03:01:09;;;;;;;13.70;4.55;;;;;;;17.68;57.42;101999.50;5048645;28;20109;-73
2022/07/16 03:03:35;;;;;;;8.85;4.30;;;;;;;17.70;56.99;102002.19;5033331;28;20021;-73
2022/07/16 03:06:01;;;;;;;6.97;4.50;;;;;;;17.72;57.01;102003.97;5033442;28;20031;-73
2022/07/16 03:08:27;;;;;;;8.55;4.68;;;;;;;17.76;56.77;102002.22;5033272;28;20029;-73
2022/07/16 03:10:52;;;;;;;9.27;4.20;;;;;;;17.69;56.81;102013.78;5033134;28;20033;-73
2022/07/16 03:13:18;;;;;;;8.32;4.85;;;;;;;17.66;56.67;102011.13;5032039;28;20120;-73
2022/07/16 03:15:43;;;;;;;6.28;4.18;;;;;;;17.69;56.82;102008.44;5048491;28;20033;-73
2022/07/16 03:18:09;;;;;;;8.00;4.57;;;;;;;17.69;56.83;102014.69;5033623;28;20029;-73
2022/07/16 03:20:34;;;;;;;8.68;4.45;;;;;;;17.68;56.68;102014.66;5032908;28;20049;-73
2022/07/16 03:22:59;;;;;;;9.23;4.95;;;;;;;17.66;56.84;102017.34;5032843;28;20175;-73
2022/07/16 03:25:25;;;;;;;7.05;4.47;;;;;;;17.65;56.70;102018.25;5033034;28;20022;-72
2022/07/16 03:27:50;;;;;;;8.98;4.60;;;;;;;17.64;56.64;102018.22;5033051;28;20029;-72
2022/07/16 03:30:17;;;;;;;9.23;4.38;;;;;;;17.68;56.67;102028.91;5033215;28;20040;-72
2022/07/16 03:32:43;;;;;;;8.50;4.30;;;;;;;17.66;56.65;102024.47;5033124;28;20048;-72
2022/07/16 03:35:10;;;;;;;9.80;4.80;;;;;;;17.66;56.81;102024.47;5032864;28;20033;-73
2022/07/16 03:40:21;;;;;;;7.97;4.60;;;;;;;17.59;56.92;102026.25;5033199;28;20041;-72
2022/07/16 03:42:46;;;;;;;8.68;4.22;;;;;;;17.62;57.20;102026.25;5033158;28;20018;-73
2022/07/16 03:45:12;;;;;;;7.68;4.63;;;;;;;17.61;57.55;102034.28;5032947;28;20026;-72
2022/07/16 03:47:37;;;;;;;9.38;4.88;;;;;;;17.66;57.20;102033.38;5032685;28;20546;-72
2022/07/16 03:50:03;;;;;;;7.65;4.50;;;;;;;17.61;57.85;102036.97;5033111;28;20502;-72
2022/07/16 03:52:28;;;;;;;12.57;4.90;;;;;;;17.56;58.22;102028.00;5032688;28;20033;-72
2022/07/16 03:54:54;;;;;;;9.95;4.38;;;;;;;17.61;58.42;102040.50;5032817;28;20041;-72
2022/07/16 03:57:19;;;;;;;9.60;4.80;;;;;;;17.61;58.54;102042.31;5032537;28;20099;-72
2022/07/16 03:59:44;;;;;;;11.60;4.97;;;;;;;17.59;58.60;102050.28;5032610;28;20479;-72
2022/07/16 04:02:10;;;;;;;7.25;4.60;;;;;;;17.60;58.74;102046.75;5031062;28;20029;-72
2022/07/16 04:04:35;;;;;;;11.25;4.88;;;;;;;17.58;59.00;102053.88;5032574;28;20076;-72
2022/07/16 04:07:00;;;;;;;8.70;5.00;;;;;;;17.50;59.33;102051.19;5031281;28;20476;-72
2022/07/16 04:09:26;;;;;;;9.70;4.88;;;;;;;17.49;59.42;102054.75;5032518;28;20107;-73
2022/07/16 04:11:51;;;;;;;9.40;4.70;;;;;;;17.51;59.77;102054.75;5033091;28;20029;-72
2022/07/16 04:14:17;;;;;;;8.23;4.50;;;;;;;17.64;59.65;102051.19;5032361;28;20029;-72
2022/07/16 04:16:42;;;;;;;10.55;5.15;;;;;;;17.66;59.84;102064.56;5032566;28;20029;-73
2022/07/16 04:19:07;;;;;;;8.05;4.72;;;;;;;17.73;60.10;102051.22;5032391;28;20036;-73
2022/07/16 04:21:33;;;;;;;9.18;4.88;;;;;;;17.71;60.43;102063.69;5032509;28;20092;-73
2022/07/16 04:23:58;;;;;;;8.38;4.85;;;;;;;17.83;60.26;102059.28;5032330;28;20613;-73
2022/07/16 04:26:24;;;;;;;10.38;5.10;;;;;;;17.76;60.90;102067.28;5032351;28;20029;-73
2022/07/16 04:28:49;;;;;;;8.20;5.00;;;;;;;17.75;61.51;102054.81;5032188;28;20491;-73
2022/07/16 04:31:14;;;;;;;7.72;4.88;;;;;;;17.80;61.81;102062.81;5032478;28;20495;-73
2022/07/16 04:33:40;;;;;;;12.90;4.93;;;;;;;17.87;61.48;102066.41;5032542;28;20487;-73
2022/07/16 04:36:06;;;;;;;10.32;5.20;;;;;;;17.92;61.30;102072.63;5035973;28;20036;-73
2022/07/16 04:38:31;;;;;;;7.28;5.10;;;;;;;17.89;62.20;102075.31;5035976;28;20455;-74
2022/07/16 04:40:57;;;;;;;10.10;4.78;;;;;;;17.89;61.99;102060.16;5035875;28;20031;-73
2022/07/16 04:43:22;;;;;;;8.70;4.90;;;;;;;17.88;62.53;102063.72;5034496;28;20041;-73
2022/07/16 04:45:48;;;;;;;7.30;4.50;;;;;;;17.96;62.25;102069.97;5035801;28;20025;-73
2022/07/16 04:48:13;;;;;;;9.27;4.78;;;;;;;17.88;63.19;102071.75;5035774;28;20040;-73
2022/07/16 04:50:38;;;;;;;10.20;4.75;;;;;;;17.85;63.18;102074.41;5035670;28;20057;-73
2022/07/16 04:53:04;;;;;;;8.60;4.85;;;;;;;17.88;63.38;102087.78;5051076;28;20395;-73
2022/07/16 04:55:29;;;;;;;7.93;4.82;;;;;;;17.88;64.04;102082.44;5035683;28;20029;-73
2022/07/16 04:57:55;;;;;;;8.70;4.80;;;;;;;17.94;63.83;102078.88;5035754;28;20026;-73
2022/07/16 05:00:21;;;;;;;7.53;4.60;;;;;;;17.95;64.47;102081.56;5034464;28;20502;-73
2022/07/16 05:02:58;;;;;;;11.88;5.03;;;;;;;17.93;65.21;102083.31;5035427;28;20030;-73
2022/07/16 05:05:30;;;;;;;10.05;4.60;;;;;;;17.96;65.01;102090.47;5035897;28;20029;-73
2022/07/16 05:07:55;;;;;;;11.60;4.65;;;;;;;18.09;65.51;102094.03;5035891;28;20036;-73
2022/07/16 05:10:21;;;;;;;14.00;4.80;;;;;;;18.15;65.29;102091.34;5035237;28;20026;-73
2022/07/16 05:12:47;;;;;;;10.90;4.60;;;;;;;18.24;65.59;102097.59;5035301;28;20112;-74
2022/07/16 05:15:12;;;;;;;11.98;4.57;;;;;;;18.34;65.23;102097.59;5035214;28;20441;-74
2022/07/16 05:17:38;;;;;;;8.05;4.55;;;;;;;18.35;66.08;102102.03;5034054;28;20029;-73
2022/07/16 05:20:04;;;;;;;9.50;4.40;;;;;;;18.35;66.71;102092.22;5034937;28;20495;-74
2022/07/16 05:22:30;;;;;;;9.70;4.10;;;;;;;18.45;66.75;102101.13;5034302;28;20025;-73
2022/07/16 05:24:56;;;;;;;10.02;4.55;;;;;;;18.50;67.51;102110.94;5050459;28;20391;-74
2022/07/16 05:27:21;;;;;;;10.20;4.00;;;;;;;18.63;67.62;102106.47;5035131;28;20032;-74
2022/07/16 05:29:47;;;;;;;8.55;3.78;;;;;;;18.79;67.14;102110.00;5035158;28;20031;-74
2022/07/16 05:32:12;;;;;;;7.22;3.80;;;;;;;18.85;67.56;102107.31;5035196;28;20026;-74
2022/07/16 05:34:37;;;;;;;6.15;3.47;;;;;;;19.01;67.09;102111.72;5035100;28;20525;-74
2022/07/16 05:37:04;;;;;;;9.43;3.95;;;;;;;19.05;67.51;102112.59;5034706;28;20056;-73
2022/07/16 05:39:30;;;;;;;6.88;3.58;;;;;;;19.20;67.43;102108.97;5035187;28;20029;-74
2022/07/16 05:41:55;;;;;;;9.70;3.70;;;;;;;19.34;66.89;102112.44;5034640;28;20030;-74
2022/07/16 05:44:21;;;;;;;7.63;3.40;;;;;;;19.41;66.59;102116.00;5034664;28;20018;-74
2022/07/16 05:46:47;;;;;;;7.10;3.40;;;;;;;19.47;65.63;102119.53;5033431;28;20029;-74
2022/07/16 05:49:12;;;;;;;8.20;3.17;;;;;;;19.57;65.36;102119.47;5034521;28;20176;-74
2022/07/16 05:51:37;;;;;;;8.55;3.03;;;;;;;19.67;65.01;102115.88;5050332;28;20441;-74
2022/07/16 05:54:03;;;;;;;7.50;2.97;;;;;;;19.91;63.86;102121.06;5034478;28;20022;-73
2022/07/16 05:56:28;;;;;;;8.07;3.05;;;;;;;20.10;64.01;102123.59;5034466;28;20025;-74
2022/07/16 05:58:56;;;;;;;9.15;2.72;;;;;;;20.26;63.29;102123.47;5034608;28;20025;-74
2022/07/16 06:01:22;;;;;;;6.38;2.92;;;;;;;20.34;63.11;102125.16;5034562;28;20036;-74
2022/07/16 06:03:47;;;;;;;7.45;2.78;;;;;;;20.40;62.16;102127.81;5049636;28;20037;-74
2022/07/16 06:06:12;;;;;;;6.38;2.60;;;;;;;20.40;61.80;102127.81;5033044;28;20025;-74
2022/07/16 06:08:38;;;;;;;6.20;2.63;;;;;;;20.42;61.88;102142.09;5033208;28;20025;-74
2022/07/16 06:11:03;;;;;;;9.10;2.85;;;;;;;20.55;61.87;102142.91;5034265;28;20033;-74
2022/07/16 06:13:29;;;;;;;9.05;2.83;;;;;;;20.78;61.15;102143.56;5034317;28;20159;-73
2022/07/16 06:15:54;;;;;;;9.82;3.35;;;;;;;21.02;60.53;102137.00;5034065;28;20529;-74
2022/07/16 06:18:19;;;;;;;7.40;2.60;;;;;;;21.12;59.43;102141.38;5032914;28;20125;-74
2022/07/16 06:20:45;;;;;;;6.28;2.55;;;;;;;21.28;59.86;102144.75;5032666;28;20053;-74
2022/07/16 06:23:10;;;;;;;9.05;2.78;;;;;;;21.40;58.14;102157.19;5033840;28;20033;-74
2022/07/16 06:25:37;;;;;;;9.32;2.50;;;;;;;21.46;58.32;102157.13;5033714;28;20035;-74
2022/07/16 06:28:03;;;;;;;6.32;2.25;;;;;;;21.63;57.60;102149.69;5034010;28;20030;-74
2022/07/16 06:30:29;;;;;;;6.10;2.20;;;;;;;21.83;55.83;102156.56;5034173;28;20360;-74
2022/07/16 06:32:55;;;;;;;5.20;2.33;;;;;;;21.80;55.61;102162.00;5033721;28;20441;-74
2022/07/16 06:35:21;;;;;;;10.05;2.28;;;;;;;21.73;55.36;102169.28;5033748;28;20087;-74
2022/07/16 06:37:46;;;;;;;6.97;2.50;;;;;;;21.73;56.01;102169.28;5049209;28;20025;-74
2022/07/16 06:40:12;;;;;;;4.88;2.40;;;;;;;21.79;55.36;102169.19;5033794;28;20026;-74
2022/07/16 06:42:37;;;;;;;4.93;2.47;;;;;;;21.69;55.23;102167.56;5033363;28;20475;-74
2022/07/16 06:45:03;;;;;;;4.35;2.15;;;;;;;21.53;55.57;102172.25;5032462;28;20033;-74
2022/07/16 06:47:29;;;;;;;5.60;2.42;;;;;;;21.53;55.77;102179.44;5032236;28;20029;-73
2022/07/16 06:49:54;;;;;;;4.82;2.30;;;;;;;21.54;55.29;102182.13;5033406;28;20036;-74
2022/07/16 06:52:20;;;;;;;5.25;2.05;;;;;;;21.45;54.61;102182.22;5048851;28;20044;-75
2022/07/16 06:54:45;;;;;;;9.30;2.28;;;;;;;21.62;54.17;102182.88;5033308;28;20029;-74
2022/07/16 06:57:11;;;;;;;8.45;2.40;;;;;;;21.71;53.95;102181.84;5033208;28;20443;-74
2022/07/16 06:59:36;;;;;;;6.28;2.05;;;;;;;21.97;53.28;102186.88;5033394;28;20030;-74
2022/07/16 07:02:02;;;;;;;7.75;2.30;;;;;;;22.09;51.60;102191.16;5033535;28;20478;-74
2022/07/16 07:04:28;;;;;;;6.65;2.10;;;;;;;22.11;51.38;102194.75;5033317;28;20058;-74
2022/07/16 07:06:54;;;;;;;5.88;2.05;;;;;;;22.11;51.23;102198.31;5032871;28;20099;-74
2022/07/16 07:09:19;;;;;;;4.43;2.10;;;;;;;22.09;49.92;102204.63;5032974;28;20037;-73
2022/07/16 07:11:45;;;;;;;6.05;2.13;;;;;;;22.33;49.06;102214.16;5032936;28;20025;-74
2022/07/16 07:14:11;;;;;;;5.60;2.08;;;;;;;22.36;48.56;102208.72;5033268;28;20105;-74
2022/07/16 07:16:36;;;;;;;4.30;1.85;;;;;;;22.58;48.63;102220.03;5033137;28;20080;-74
2022/07/16 07:19:02;;;;;;;5.45;2.10;;;;;;;22.80;48.40;102220.53;5015155;28;20033;-74
2022/07/16 07:21:28;;;;;;;3.92;1.83;;;;;;;23.03;47.57;102212.03;5033046;28;20037;-74
2022/07/16 07:23:53;;;;;;;5.75;2.13;;;;;;;23.12;47.63;102218.13;5031788;28;20065;-74
2022/07/16 07:26:20;;;;;;;4.03;1.90;;;;;;;23.24;45.42;102225.09;5033188;28;20018;-74
2022/07/16 07:28:48;;;;;;;5.22;1.92;;;;;;;23.27;44.75;102230.44;5033377;28;20029;-74
2022/07/16 07:31:13;;;;;;;3.78;2.00;;;;;;;23.49;44.46;102222.81;5033078;28;20030;-74
2022/07/16 07:33:39;;;;;;;2.90;1.90;;;;;;;23.66;44.06;102228.75;5032884;28;20036;-74
2022/07/16 07:36:05;;;;;;;6.95;2.05;;;;;;;23.76;44.03;102226.72;5033087;28;20040;-74
2022/07/16 07:38:31;;;;;;;8.27;1.77;;;;;;;23.82;42.92;102229.31;5032878;28;20356;-73
2022/07/16 07:40:57;;;;;;;6.50;2.00;;;;;;;24.03;43.83;102235.16;5033137;28;20129;-73
2022/07/16 07:43:22;;;;;;;4.25;1.92;;;;;;;24.01;43.20;102232.47;5032832;28;20108;-73
2022/07/16 07:45:48;;;;;;;4.32;2.00;;;;;;;24.05;42.99;102239.56;5031703;28;20489;-73
2022/07/16 07:48:13;;;;;;;4.38;2.00;;;;;;;23.92;43.17;102236.28;5032840;28;20026;-73
2022/07/16 07:50:39;;;;;;;5.22;1.92;;;;;;;23.58;43.32;102233.38;5032928;28;20029;-73
2022/07/16 07:53:05;;;;;;;5.35;2.03;;;;;;;23.51;44.02;102231.75;5031473;28;20033;-73
2022/07/16 07:55:31;;;;;;;6.15;2.10;;;;;;;23.69;44.78;102235.91;5032811;28;20105;-73
2022/07/16 07:57:56;;;;;;;8.52;2.10;;;;;;;23.75;43.83;102233.06;5032749;28;20026;-73
2022/07/16 08:00:22;;;;;;;5.78;1.92;;;;;;;23.79;42.37;102237.47;5048042;28;20034;-73
2022/07/16 08:02:48;;;;;;;5.20;2.17;;;;;;;23.83;42.21;102243.69;5032663;28;20475;-73
2022/07/16 08:05:15;;;;;;;5.82;2.22;;;;;;;23.86;42.52;102243.63;5032762;28;20041;-73
2022/07/16 08:07:40;;;;;;;4.57;2.03;;;;;;;24.05;43.17;102247.69;5031513;28;20475;-73
2022/07/16 08:10:08;;;;;;;5.57;2.05;;;;;;;24.21;42.53;102254.50;5034369;28;20084;-73
2022/07/16 08:12:33;;;;;;;3.67;2.00;;;;;;;24.45;41.69;102260.25;5035400;28;20446;-73
2022/07/16 08:14:59;;;;;;;6.53;2.30;;;;;;;24.70;40.85;102258.72;5036417;28;20057;-73
2022/07/16 08:17:24;;;;;;;5.65;1.88;;;;;;;24.96;38.61;102262.56;5051866;28;20033;-73
2022/07/16 08:19:50;;;;;;;4.80;2.20;;;;;;;25.07;39.15;102257.75;5036704;28;20465;-73
2022/07/16 08:22:15;;;;;;;5.18;1.90;;;;;;;25.44;38.26;102254.94;5036828;28;20537;-73
2022/07/16 08:27:25;;;;;;;5.32;1.92;;;;;;;25.95;38.16;102264.28;5037993;28;20102;-73
2022/07/16 08:29:50;;;;;;;5.70;2.40;;;;;;;26.31;36.87;102273.09;5035918;28;20029;-73
2022/07/16 08:32:15;;;;;;;5.07;2.00;;;;;;;26.48;37.18;102272.56;5036038;28;20034;-73
2022/07/16 08:34:41;;;;;;;5.63;2.10;;;;;;;26.65;37.17;102269.28;5051624;28;20386;-73
2022/07/16 08:37:11;;;;;;;3.55;1.88;;;;;;;26.64;36.50;102281.09;5036320;28;20049;-73
2022/07/16 08:39:44;;;;;;;3.72;2.00;;;;;;;26.80;35.51;102279.59;5036425;28;20032;-73
2022/07/16 08:42:13;;;;;;;5.22;1.88;;;;;;;26.91;35.04;102284.66;5036852;28;20032;-73
2022/07/16 08:44:40;;;;;;;6.38;2.20;;;;;;;26.86;35.49;102281.25;5036850;28;20034;-73
2022/07/16 08:47:09;;;;;;;7.30;2.10;;;;;;;26.65;34.85;102293.69;5036770;28;20044;-73
2022/07/16 08:49:35;;;;;;;4.68;2.13;;;;;;;26.72;35.53;102300.66;5036266;28;20028;-73
2022/07/16 08:52:02;;;;;;;5.30;2.00;;;;;;;26.81;36.42;102294.03;5035925;28;20060;-71
2022/07/16 08:54:29;;;;;;;3.30;2.00;;;;;;;27.06;34.47;102288.66;5034414;28;20031;-72
2022/07/16 08:56:54;;;;;;;3.88;2.10;;;;;;;27.39;34.09;102298.34;5035616;28;20076;-72
2022/07/16 08:59:20;;;;;;;4.97;2.05;;;;;;;27.38;32.44;102293.84;5034440;28;20419;-73
2022/07/16 09:01:46;;;;;;;5.50;2.05;;;;;;;27.24;33.25;102301.63;5035426;28;20487;-72
2022/07/16 09:04:11;;;;;;;3.28;1.80;;;;;;;27.16;33.01;102306.44;5035373;28;20104;-72
2022/07/16 09:06:37;;;;;;;5.35;2.10;;;;;;;27.29;33.41;102298.75;5050667;28;20040;-72
2022/07/16 09:09:02;;;;;;;4.35;1.90;;;;;;;27.48;33.35;102304.38;5035182;28;20021;-72
2022/07/16 09:11:33;;;;;;;3.28;1.90;;;;;;;27.76;32.57;102312.44;5035365;28;20026;-71
2022/07/16 09:14:07;;;;;;;4.05;1.80;;;;;;;28.08;32.57;102305.72;5035277;28;20446;-72
2022/07/16 09:16:47;;;;;;;5.10;2.00;;;;;;;28.14;32.14;102308.22;5035430;28;20030;-72
2022/07/16 09:19:16;;;;;;;6.65;2.50;;;;;;;28.32;32.25;102312.91;5035375;28;20056;-73
2022/07/16 09:22:06;;;;;;;5.80;2.45;;;;;;;28.60;31.49;102315.41;5034767;28;20040;-72
2022/07/16 09:24:45;;;;;;;6.32;2.42;;;;;;;28.19;31.23;102319.78;5035557;28;20029;-72
2022/07/16 09:27:13;;;;;;;5.25;2.13;;;;;;;27.88;32.49;102318.28;5035338;28;20067;-72
2022/07/16 09:29:46;;;;;;;5.50;2.03;;;;;;;27.53;32.66;102316.84;5034964;28;20026;-72
2022/07/16 09:32:13;;;;;;;3.72;1.90;;;;;;;27.36;32.44;102313.84;5033541;28;20036;-71
2022/07/16 09:34:38;;;;;;;3.25;1.98;;;;;;;27.25;32.64;102316.97;5034926;28;20032;-72
2022/07/16 09:37:06;;;;;;;6.32;2.10;;;;;;;27.26;33.22;102309.72;5034952;28;20025;-71
2022/07/16 09:39:34;;;;;;;5.88;1.83;;;;;;;27.16;32.34;102310.03;5034765;28;20025;-71
2022/07/16 09:41:59;;;;;;;5.65;2.00;;;;;;;27.36;33.41;102316.56;5034647;28;20472;-72
2022/07/16 09:44:28;;;;;;;4.05;1.95;;;;;;;27.81;33.29;102316.72;5034792;28;20022;-72
2022/07/16 09:46:59;;;;;;;29.73;3.00;;;;;;;28.09;32.21;102321.09;5035123;28;20041;-72
2022/07/16 09:49:26;;;;;;;21.83;2.78;;;;;;;28.63;31.61;102323.44;5034617;28;20032;-71
2022/07/16 09:51:52;;;;;;;4.43;2.00;;;;;;;28.77;30.85;102324.69;5050185;28;20097;-71
2022/07/16 09:54:32;;;;;;;5.20;2.00;;;;;;;28.72;30.06;102335.78;5033322;28;20215;-72
2022/07/16 09:57:18;;;;;;;5.95;2.30;;;;;;;28.65;30.48;102342.41;5033517;28;20025;-71
2022/07/16 09:59:45;;;;;;;5.63;2.20;;;;;;;28.52;30.11;102339.31;5034501;28;20030;-72
2022/07/16 10:02:12;;;;;;;5.38;2.30;;;;;;;28.31;30.40;102337.44;5034348;28;20470;-71
2022/07/16 10:04:37;;;;;;;5.78;1.90;;;;;;;28.15;29.95;102339.88;5034079;28;20367;-71
2022/07/16 10:07:03;;;;;;;4.63;2.10;;;;;;;27.65;31.35;102337.22;5034341;28;20028;-71
2022/07/16 10:09:29;;;;;;;7.95;2.30;;;;;;;27.16;31.90;102339.00;5035064;28;20491;-71
2022/07/16 10:11:57;;;;;;;8.63;2.40;;;;;;;27.04;32.89;102345.69;5034344;28;20021;-71
2022/07/16 10:14:24;;;;;;;7.90;2.40;;;;;;;27.43;33.46;102343.44;5033031;28;20029;-71
2022/07/16 10:16:50;;;;;;;4.80;2.15;;;;;;;27.58;31.42;102346.53;5034372;28;20029;-71
2022/07/16 10:19:16;;;;;;;6.20;2.22;;;;;;;27.71;30.52;102335.19;5033772;28;20383;-71
2022/07/16 10:22:10;;;;;;;5.13;1.85;;;;;;;27.40;31.54;102353.53;5033089;28;20032;-71
2022/07/16 10:24:50;;;;;;;6.90;1.92;;;;;;;27.90;30.05;102343.53;5033379;28;20049;-69
2022/07/16 10:27:28;;;;;;;5.50;1.92;;;;;;;27.99;29.81;102355.88;5033961;28;20062;-71
2022/07/16 10:30:13;;;;;;;6.47;2.03;;;;;;;28.21;29.85;102354.09;5033860;28;20029;-69
2022/07/16 10:33:00;;;;;;;5.05;1.88;;;;;;;27.99;30.66;102355.88;5031999;28;20087;-71
2022/07/16 10:35:30;;;;;;;5.28;2.10;;;;;;;27.64;30.04;102368.94;5033722;28;20514;-71
2022/07/16 10:38:17;;;;;;;5.95;2.25;;;;;;;27.43;30.35;102373.31;5032190;28;20036;-72
2022/07/16 10:40:44;;;;;;;7.75;2.10;;;;;;;27.37;30.10;102362.69;5033906;28;20040;-71
2022/07/16 10:43:19;;;;;;;6.85;2.20;;;;;;;27.48;30.11;102364.13;5033699;28;20037;-71
2022/07/16 10:45:57;;;;;;;3.67;1.90;;;;;;;27.64;30.25;102368.94;5033370;28;20447;-71
2022/07/16 10:48:49;;;;;;;4.78;2.00;;;;;;;27.45;30.33;102371.44;5033662;28;20076;-71
2022/07/16 10:51:20;;;;;;;6.63;2.03;;;;;;;27.29;29.92;102372.03;5033388;28;20024;-71
2022/07/16 10:54:18;;;;;;;4.72;1.90;;;;;;;27.12;30.35;102383.47;5032198;28;20052;-70
2022/07/16 10:56:47;;;;;;;4.55;1.90;;;;;;;27.05;30.24;102373.72;5033428;28;20039;-71
2022/07/16 10:59:15;;;;;;;3.58;1.80;;;;;;;27.38;29.14;102374.44;5033488;28;20068;-71
2022/07/16 11:01:43;;;;;;;5.40;1.70;;;;;;;27.85;28.76;102380.00;5033410;28;20021;-72
2022/07/16 11:04:10;;;;;;;4.15;1.90;;;;;;;28.38;26.87;102377.06;5033388;28;20040;-71
2022/07/16 11:06:37;;;;;;;6.93;2.10;;;;;;;28.40;27.19;102369.75;5033338;28;20026;-71
2022/07/16 11:09:05;;;;;;;11.25;2.10;;;;;;;28.12;28.85;102387.09;5033257;28;20064;-72
2022/07/16 11:11:36;;;;;;;4.38;2.00;;;;;;;27.86;29.90;102379.03;5033437;28;20021;-71
2022/07/16 11:14:03;;;;;;;6.47;1.90;;;;;;;27.76;29.41;102377.63;5033119;28;20029;-71
2022/07/16 11:16:29;;;;;;;5.32;1.85;;;;;;;27.83;29.54;102373.72;5032166;28;20025;-71
2022/07/16 11:18:55;;;;;;;9.40;2.33;;;;;;;28.21;28.84;102377.69;5032864;28;20026;-71
2022/07/16 11:21:20;;;;;;;6.95;2.00;;;;;;;28.24;28.49;102380.28;5032838;28;20577;-71
2022/07/16 11:24:00;;;;;;;6.28;1.73;;;;;;;28.55;28.14;102381.84;5032848;28;20079;-71
2022/07/16 11:26:28;;;;;;;6.20;1.92;;;;;;;28.87;27.88;102381.41;5033352;28;20079;-72
2022/07/16 11:28:56;;;;;;;9.82;2.10;;;;;;;29.02;28.12;102379.03;5032794;28;20033;-71
2022/07/16 11:31:27;;;;;;;5.85;2.15;;;;;;;29.70;26.62;102375.13;5033109;28;20017;-71